Delta MD90 at Milwaukee on Jan 1st 2014, blew tyres on landing

Last Update: January 2, 2014 / 22:48:59 GMT/Zulu time

Bookmark this article
Incident Facts

Date of incident
Jan 1, 2014

Classification
Incident

Flight number
DL-2504

Aircraft Registration
N959DN

ICAO Type Designator
MD90

Airport ICAO Code
KMKE

A Delta Airlines McDonnell Douglas MD-90, registration N959DN performing flight DL-2504 from Minneapolis,MN to Milwaukee,WI (USA), had safely landed on Milwaukee's runway 01L, a preceding aircraft had reported fair braking action. During roll out the crew reported braking action 4, but when the MD-90 turned off the runway at taxiway M about 5900 feet/1790 meters down the runway, the aircraft stopped and was disabled. Aircraft on approach were subsequently told by approach, that the disabled aircraft had blown a tyre right at the edge on the runway, and were sent into holds, later approach stated he didn't know whether the aircraft slid due to runway conditions, a few minutes later reconfirmed that the aircraft blew tyres, they needed to clear debris off the runway. A few crews got a bit nerveous stating they would need to land immediately when the debris was cleared.

A passenger reported the aircraft touched down pretty hard. The crew later announced the brakes had locked and two tyres had blown. They disembarked onto the taxiway and were bussed to the terminal.



Metars:
KMKE 012352Z 05014KT 10SM FEW020 SCT025 OVC033 M07/M13 A3027 RMK AO2 SLP265 4/011 60001 T10721128 11072 21078 55001
KMKE 012252Z 06015KT 10SM BKN026 OVC033 M07/M12 A3027 RMK AO2 SNE06 SLP265 P0000 T10721117
KMKE 012248Z 06014KT 10SM BKN026 OVC031 M07/M12 A3027 RMK AO2 SNE06 P0000
KMKE 012234Z 06014KT 10SM SCT026 OVC031 M07/M12 A3027 RMK AO2 SNE06 P0000 T10721122
KMKE 012208Z 06014KT 9SM BKN025 OVC032 M07/M12 A3027 RMK AO2 SNE06 P0000 T10721122
KMKE 012152Z 07015KT 9SM -SN BKN027 OVC034 M08/M12 A3027 RMK AO2 SLP266 P0000 T10781122
KMKE 012052Z 06010KT 9SM -SN BKN024 OVC033 M08/M12 A3027 RMK AO2 SLP266 P0000 60001 T10781122 56005
KMKE 011952Z 06015KT 7SM -SN BKN019 BKN024 OVC029 M08/M12 A3027 RMK AO2 SLP268 P0000 T10781122
KMKE 011940Z 06013KT 2SM R01L/4500VP6000FT -SN BKN015 BKN024 OVC029 M08/M11 A3028
KMKE 011928Z 06012KT 1 3/4SM R01L/3500VP6000FT -SN OVC014 M08/M12 A3028 RMK AO2P0000 T10781117
KMKE 011917Z 07014KT 1 3/4SM R01L/4000VP6000FT -SN OVC016 M08/M11 A3028 RMK AO2P0000 T10781111
KMKE 011852Z 08014KT 1SM R01L/4000VP6000FT -SN VV016 M08/M11 A3029 RMK AO2 TWR VIS 1 1/4 SLP271 P0001 T10781111
Aircraft Registration Data
Registration mark
N959DN
Country of Registration
United States
Date of Registration
C qpj lmlbbcqq Subscribe to unlock
Manufacturer
BOEING
Aircraft Model / Type
MD-90-30
Number of Seats
ICAO Aircraft Type
MD90
Year of Manufacture
Serial Number
Aircraft Address / Mode S Code (HEX)
Engine Count
Engine Manufacturer
Engine Model
Engine Type
Pounds of Thrust
Main Owner
AlbgbphmnAAmdeAi ib AAcfqdbeidmcngdfpqfc emfhnei effplbh dfdggkclmgciqgemAmqbpgch ehlfnkjjccenmhepjA cgqh Subscribe to unlock
Incident Facts

Date of incident
Jan 1, 2014

Classification
Incident

Flight number
DL-2504

Aircraft Registration
N959DN

ICAO Type Designator
MD90

Airport ICAO Code
KMKE

This article is published under license from Avherald.com. © of text by Avherald.com.
Article source

You can read 2 more free articles without a subscription.

Subscribe now and continue reading without any limits!

Are you a subscriber? Login
Subscribe

Read unlimited articles and receive our daily update briefing. Gain better insights into what is happening in commercial aviation safety.

Send tip

Support AeroInside by sending a small tip amount.

Related articles

Newest articles

Subscribe today

Are you researching aviation incidents? Get access to AeroInside Insights, unlimited read access and receive the daily newsletter.

Pick your plan and subscribe

Partner

Blockaviation logo

A new way to document and demonstrate airworthiness compliance and aircraft value. Find out more.

ELITE Logo

ELITE Simulation Solutions is a leading global provider of Flight Simulation Training Devices, IFR training software as well as flight controls and related services. Find out more.

Blue Altitude Logo

Your regulation partner, specialists in aviation safety and compliance; providing training, auditing, and consultancy services. Find out more.

AeroInside Blog
Popular aircraft
Airbus A320
Boeing 737-800
Boeing 737-800 MAX
Popular airlines
American Airlines
United
Delta
Air Canada
Lufthansa
British Airways